sensor_id;sensor_type;location;lat;lon;timestamp;temperature;humidity
21944;DHT22;11136;48.778;9.126;2023-07-24T00:01:30;21.70;93.50
21944;DHT22;11136;48.778;9.126;2023-07-24T00:03:56;21.70;93.70
21944;DHT22;11136;48.778;9.126;2023-07-24T00:06:22;21.70;93.90
21944;DHT22;11136;48.778;9.126;2023-07-24T00:08:47;21.70;94.20
21944;DHT22;11136;48.778;9.126;2023-07-24T00:11:13;21.80;94.30
21944;DHT22;11136;48.778;9.126;2023-07-24T00:13:38;21.60;94.10
21944;DHT22;11136;48.778;9.126;2023-07-24T00:16:08;21.60;94.10
21944;DHT22;11136;48.778;9.126;2023-07-24T00:18:34;21.50;94.40
21944;DHT22;11136;48.778;9.126;2023-07-24T00:21:00;21.50;94.90
21944;DHT22;11136;48.778;9.126;2023-07-24T00:23:25;21.50;95.30
21944;DHT22;11136;48.778;9.126;2023-07-24T00:25:51;21.50;95.50
21944;DHT22;11136;48.778;9.126;2023-07-24T00:28:16;21.40;95.50
21944;DHT22;11136;48.778;9.126;2023-07-24T00:30:42;21.40;95.60
21944;DHT22;11136;48.778;9.126;2023-07-24T00:33:08;21.40;95.80
21944;DHT22;11136;48.778;9.126;2023-07-24T00:35:34;21.40;95.60
21944;DHT22;11136;48.778;9.126;2023-07-24T00:37:59;21.30;95.90
21944;DHT22;11136;48.778;9.126;2023-07-24T00:40:25;21.60;95.90
21944;DHT22;11136;48.778;9.126;2023-07-24T00:42:51;21.30;96.10
21944;DHT22;11136;48.778;9.126;2023-07-24T00:45:16;21.20;96.10
21944;DHT22;11136;48.778;9.126;2023-07-24T00:47:45;21.20;96.20
21944;DHT22;11136;48.778;9.126;2023-07-24T00:50:11;21.20;96.10
21944;DHT22;11136;48.778;9.126;2023-07-24T00:52:37;21.10;96.20
21944;DHT22;11136;48.778;9.126;2023-07-24T00:55:03;21.10;96.30
21944;DHT22;11136;48.778;9.126;2023-07-24T00:57:29;21.10;96.40
21944;DHT22;11136;48.778;9.126;2023-07-24T00:59:55;21.10;96.50
21944;DHT22;11136;48.778;9.126;2023-07-24T01:02:21;21.00;96.60
21944;DHT22;11136;48.778;9.126;2023-07-24T01:04:47;21.00;96.70
21944;DHT22;11136;48.778;9.126;2023-07-24T01:07:13;21.00;96.80
21944;DHT22;11136;48.778;9.126;2023-07-24T01:09:39;21.00;96.90
21944;DHT22;11136;48.778;9.126;2023-07-24T01:12:27;21.00;96.90
21944;DHT22;11136;48.778;9.126;2023-07-24T01:15:10;21.00;97.00
21944;DHT22;11136;48.778;9.126;2023-07-24T01:17:45;20.90;97.00
21944;DHT22;11136;48.778;9.126;2023-07-24T01:20:12;20.90;96.90
21944;DHT22;11136;48.778;9.126;2023-07-24T01:25:32;20.80;97.00
21944;DHT22;11136;48.778;9.126;2023-07-24T01:28:00;20.80;97.10
21944;DHT22;11136;48.778;9.126;2023-07-24T01:30:26;20.70;97.10
21944;DHT22;11136;48.778;9.126;2023-07-24T01:32:52;20.70;97.20
21944;DHT22;11136;48.778;9.126;2023-07-24T01:35:17;20.70;97.40
21944;DHT22;11136;48.778;9.126;2023-07-24T01:37:44;20.70;97.40
21944;DHT22;11136;48.778;9.126;2023-07-24T01:40:12;20.70;97.50
21944;DHT22;11136;48.778;9.126;2023-07-24T01:42:38;20.70;97.50
21944;DHT22;11136;48.778;9.126;2023-07-24T01:45:04;20.70;97.60
21944;DHT22;11136;48.778;9.126;2023-07-24T01:47:30;20.60;97.60
21944;DHT22;11136;48.778;9.126;2023-07-24T01:49:56;20.60;97.60
21944;DHT22;11136;48.778;9.126;2023-07-24T01:52:22;20.60;97.70
21944;DHT22;11136;48.778;9.126;2023-07-24T01:54:48;20.60;97.70
21944;DHT22;11136;48.778;9.126;2023-07-24T01:57:13;20.60;97.70
21944;DHT22;11136;48.778;9.126;2023-07-24T01:59:39;20.60;97.80
21944;DHT22;11136;48.778;9.126;2023-07-24T02:02:05;20.60;97.90
21944;DHT22;11136;48.778;9.126;2023-07-24T02:04:30;20.60;97.80
21944;DHT22;11136;48.778;9.126;2023-07-24T02:06:56;20.60;97.50
21944;DHT22;11136;48.778;9.126;2023-07-24T02:09:21;20.50;97.30
21944;DHT22;11136;48.778;9.126;2023-07-24T02:11:47;20.80;97.70
21944;DHT22;11136;48.778;9.126;2023-07-24T02:14:14;20.50;97.10
21944;DHT22;11136;48.778;9.126;2023-07-24T02:16:40;20.50;96.80
21944;DHT22;11136;48.778;9.126;2023-07-24T02:19:06;20.50;96.70
21944;DHT22;11136;48.778;9.126;2023-07-24T02:21:32;20.50;96.90
21944;DHT22;11136;48.778;9.126;2023-07-24T02:23:58;20.50;97.10
21944;DHT22;11136;48.778;9.126;2023-07-24T02:26:23;20.50;97.30
21944;DHT22;11136;48.778;9.126;2023-07-24T02:28:49;20.60;97.40
21944;DHT22;11136;48.778;9.126;2023-07-24T02:31:14;20.50;97.40
21944;DHT22;11136;48.778;9.126;2023-07-24T02:33:40;20.50;97.50
21944;DHT22;11136;48.778;9.126;2023-07-24T02:36:06;20.50;97.60
21944;DHT22;11136;48.778;9.126;2023-07-24T02:38:31;20.50;97.50
21944;DHT22;11136;48.778;9.126;2023-07-24T02:40:57;20.50;97.50
21944;DHT22;11136;48.778;9.126;2023-07-24T02:43:22;20.80;97.60
21944;DHT22;11136;48.778;9.126;2023-07-24T02:45:48;20.50;97.70
21944;DHT22;11136;48.778;9.126;2023-07-24T02:48:13;20.50;97.70
21944;DHT22;11136;48.778;9.126;2023-07-24T02:50:39;20.40;97.80
21944;DHT22;11136;48.778;9.126;2023-07-24T02:53:05;20.50;97.80
21944;DHT22;11136;48.778;9.126;2023-07-24T02:55:30;20.40;97.80
21944;DHT22;11136;48.778;9.126;2023-07-24T02:57:56;20.40;97.70
21944;DHT22;11136;48.778;9.126;2023-07-24T03:00:22;20.30;97.80
21944;DHT22;11136;48.778;9.126;2023-07-24T03:02:48;20.30;97.80
21944;DHT22;11136;48.778;9.126;2023-07-24T03:05:13;20.30;97.80
21944;DHT22;11136;48.778;9.126;2023-07-24T03:07:39;20.20;97.90
21944;DHT22;11136;48.778;9.126;2023-07-24T03:10:05;20.20;97.90
21944;DHT22;11136;48.778;9.126;2023-07-24T03:12:30;20.20;97.90
21944;DHT22;11136;48.778;9.126;2023-07-24T03:14:56;20.10;97.90
21944;DHT22;11136;48.778;9.126;2023-07-24T03:17:22;20.10;97.80
21944;DHT22;11136;48.778;9.126;2023-07-24T03:19:49;20.00;97.90
21944;DHT22;11136;48.778;9.126;2023-07-24T03:22:14;20.00;97.90
21944;DHT22;11136;48.778;9.126;2023-07-24T03:24:40;19.90;97.90
21944;DHT22;11136;48.778;9.126;2023-07-24T03:27:06;19.90;98.00
21944;DHT22;11136;48.778;9.126;2023-07-24T03:29:31;19.80;98.20
21944;DHT22;11136;48.778;9.126;2023-07-24T03:31:57;20.10;98.50
21944;DHT22;11136;48.778;9.126;2023-07-24T03:34:23;19.80;98.50
21944;DHT22;11136;48.778;9.126;2023-07-24T03:36:48;19.80;98.40
21944;DHT22;11136;48.778;9.126;2023-07-24T03:39:14;19.80;98.30
21944;DHT22;11136;48.778;9.126;2023-07-24T03:41:42;19.80;98.30
21944;DHT22;11136;48.778;9.126;2023-07-24T03:44:08;19.80;98.30
21944;DHT22;11136;48.778;9.126;2023-07-24T03:46:34;19.70;98.20
21944;DHT22;11136;48.778;9.126;2023-07-24T03:49:00;19.70;98.50
21944;DHT22;11136;48.778;9.126;2023-07-24T03:51:25;19.60;98.10
21944;DHT22;11136;48.778;9.126;2023-07-24T03:53:51;19.60;98.30
21944;DHT22;11136;48.778;9.126;2023-07-24T03:56:16;19.60;98.50
21944;DHT22;11136;48.778;9.126;2023-07-24T03:58:42;19.60;98.60
21944;DHT22;11136;48.778;9.126;2023-07-24T04:01:08;19.60;98.70
21944;DHT22;11136;48.778;9.126;2023-07-24T04:03:34;19.60;98.80
21944;DHT22;11136;48.778;9.126;2023-07-24T04:06:00;19.60;98.90
21944;DHT22;11136;48.778;9.126;2023-07-24T04:08:26;19.70;98.90
21944;DHT22;11136;48.778;9.126;2023-07-24T04:10:51;19.70;98.90
21944;DHT22;11136;48.778;9.126;2023-07-24T04:13:17;19.60;98.90
21944;DHT22;11136;48.778;9.126;2023-07-24T04:15:43;19.60;99.00
21944;DHT22;11136;48.778;9.126;2023-07-24T04:18:10;19.60;99.10
21944;DHT22;11136;48.778;9.126;2023-07-24T04:20:35;19.60;99.20
21944;DHT22;11136;48.778;9.126;2023-07-24T04:23:01;19.70;99.40
21944;DHT22;11136;48.778;9.126;2023-07-24T04:25:26;19.70;99.50
21944;DHT22;11136;48.778;9.126;2023-07-24T04:27:52;19.70;99.60
21944;DHT22;11136;48.778;9.126;2023-07-24T04:30:17;19.70;99.70
21944;DHT22;11136;48.778;9.126;2023-07-24T04:32:43;19.70;99.70
21944;DHT22;11136;48.778;9.126;2023-07-24T04:35:09;19.70;99.80
21944;DHT22;11136;48.778;9.126;2023-07-24T04:37:35;19.70;99.80
21944;DHT22;11136;48.778;9.126;2023-07-24T04:40:00;19.70;99.90
21944;DHT22;11136;48.778;9.126;2023-07-24T04:42:26;19.70;99.90
21944;DHT22;11136;48.778;9.126;2023-07-24T04:44:51;19.70;99.90
21944;DHT22;11136;48.778;9.126;2023-07-24T04:47:17;19.70;99.90
21944;DHT22;11136;48.778;9.126;2023-07-24T04:49:43;19.70;99.90
21944;DHT22;11136;48.778;9.126;2023-07-24T04:52:09;19.70;99.90
21944;DHT22;11136;48.778;9.126;2023-07-24T04:54:34;19.70;99.90
21944;DHT22;11136;48.778;9.126;2023-07-24T04:57:00;19.70;99.90
21944;DHT22;11136;48.778;9.126;2023-07-24T04:59:25;19.70;99.90
21944;DHT22;11136;48.778;9.126;2023-07-24T05:01:51;19.80;99.90
21944;DHT22;11136;48.778;9.126;2023-07-24T05:04:16;19.80;99.90
21944;DHT22;11136;48.778;9.126;2023-07-24T05:06:42;19.80;99.90
21944;DHT22;11136;48.778;9.126;2023-07-24T05:09:07;19.90;99.90
21944;DHT22;11136;48.778;9.126;2023-07-24T05:11:33;19.80;99.90
21944;DHT22;11136;48.778;9.126;2023-07-24T05:13:58;19.90;99.90
21944;DHT22;11136;48.778;9.126;2023-07-24T05:16:24;20.20;99.90
21944;DHT22;11136;48.778;9.126;2023-07-24T05:18:49;19.90;99.90
21944;DHT22;11136;48.778;9.126;2023-07-24T05:21:15;20.10;99.90
21944;DHT22;11136;48.778;9.126;2023-07-24T05:23:40;19.90;99.90
21944;DHT22;11136;48.778;9.126;2023-07-24T05:26:06;19.90;99.90
21944;DHT22;11136;48.778;9.126;2023-07-24T05:28:33;19.90;99.90
21944;DHT22;11136;48.778;9.126;2023-07-24T05:31:02;19.90;99.90
21944;DHT22;11136;48.778;9.126;2023-07-24T05:33:28;20.00;99.90
21944;DHT22;11136;48.778;9.126;2023-07-24T05:36:01;20.00;99.90
21944;DHT22;11136;48.778;9.126;2023-07-24T05:38:27;20.00;99.90
21944;DHT22;11136;48.778;9.126;2023-07-24T05:41:01;20.00;99.90
21944;DHT22;11136;48.778;9.126;2023-07-24T05:43:28;20.00;99.70
21944;DHT22;11136;48.778;9.126;2023-07-24T05:45:55;20.00;99.10
21944;DHT22;11136;48.778;9.126;2023-07-24T05:48:22;20.10;98.70
21944;DHT22;11136;48.778;9.126;2023-07-24T05:50:47;20.40;98.60
21944;DHT22;11136;48.778;9.126;2023-07-24T05:53:14;20.10;98.40
21944;DHT22;11136;48.778;9.126;2023-07-24T05:55:39;20.20;98.20
21944;DHT22;11136;48.778;9.126;2023-07-24T05:58:05;20.20;98.10
21944;DHT22;11136;48.778;9.126;2023-07-24T06:00:32;20.20;98.10
21944;DHT22;11136;48.778;9.126;2023-07-24T06:02:57;20.30;98.10
21944;DHT22;11136;48.778;9.126;2023-07-24T06:05:23;20.40;98.20
21944;DHT22;11136;48.778;9.126;2023-07-24T06:07:48;20.30;98.10
21944;DHT22;11136;48.778;9.126;2023-07-24T06:10:14;20.30;97.90
21944;DHT22;11136;48.778;9.126;2023-07-24T06:12:40;20.40;97.70
21944;DHT22;11136;48.778;9.126;2023-07-24T06:15:06;20.30;97.30
21944;DHT22;11136;48.778;9.126;2023-07-24T06:17:32;20.30;97.00
21944;DHT22;11136;48.778;9.126;2023-07-24T06:20:05;20.40;96.80
21944;DHT22;11136;48.778;9.126;2023-07-24T06:22:31;20.40;96.70
21944;DHT22;11136;48.778;9.126;2023-07-24T06:24:57;20.40;96.70
21944;DHT22;11136;48.778;9.126;2023-07-24T06:27:22;20.30;96.70
21944;DHT22;11136;48.778;9.126;2023-07-24T06:29:48;20.40;96.50
21944;DHT22;11136;48.778;9.126;2023-07-24T06:32:13;20.40;96.60
21944;DHT22;11136;48.778;9.126;2023-07-24T06:34:39;20.40;96.60
21944;DHT22;11136;48.778;9.126;2023-07-24T06:37:05;20.30;96.60
21944;DHT22;11136;48.778;9.126;2023-07-24T06:39:32;20.50;96.50
21944;DHT22;11136;48.778;9.126;2023-07-24T06:41:58;20.50;96.70
21944;DHT22;11136;48.778;9.126;2023-07-24T06:44:25;20.50;96.70
21944;DHT22;11136;48.778;9.126;2023-07-24T06:46:51;20.50;96.80
21944;DHT22;11136;48.778;9.126;2023-07-24T06:49:16;20.50;96.90
21944;DHT22;11136;48.778;9.126;2023-07-24T06:51:42;20.50;96.80
21944;DHT22;11136;48.778;9.126;2023-07-24T06:54:07;20.50;96.70
21944;DHT22;11136;48.778;9.126;2023-07-24T06:56:33;20.60;96.80
21944;DHT22;11136;48.778;9.126;2023-07-24T06:58:59;20.60;96.90
21944;DHT22;11136;48.778;9.126;2023-07-24T07:01:24;20.60;96.90
21944;DHT22;11136;48.778;9.126;2023-07-24T07:03:50;20.60;97.00
21944;DHT22;11136;48.778;9.126;2023-07-24T07:06:16;20.60;97.00
21944;DHT22;11136;48.778;9.126;2023-07-24T07:08:41;20.60;97.10
21944;DHT22;11136;48.778;9.126;2023-07-24T07:11:07;20.60;97.20
21944;DHT22;11136;48.778;9.126;2023-07-24T07:13:33;20.70;97.30
21944;DHT22;11136;48.778;9.126;2023-07-24T07:15:58;20.70;97.30
21944;DHT22;11136;48.778;9.126;2023-07-24T07:18:24;20.70;97.40
21944;DHT22;11136;48.778;9.126;2023-07-24T07:20:51;21.00;97.50
21944;DHT22;11136;48.778;9.126;2023-07-24T07:23:18;20.70;97.50
21944;DHT22;11136;48.778;9.126;2023-07-24T07:25:44;20.70;97.60
21944;DHT22;11136;48.778;9.126;2023-07-24T07:28:16;20.80;97.50
21944;DHT22;11136;48.778;9.126;2023-07-24T07:30:48;20.80;97.60
21944;DHT22;11136;48.778;9.126;2023-07-24T07:33:14;20.80;97.60
21944;DHT22;11136;48.778;9.126;2023-07-24T07:35:39;20.80;97.60
21944;DHT22;11136;48.778;9.126;2023-07-24T07:38:05;20.80;97.60
21944;DHT22;11136;48.778;9.126;2023-07-24T07:40:31;20.80;97.60
21944;DHT22;11136;48.778;9.126;2023-07-24T07:42:57;20.90;97.80
21944;DHT22;11136;48.778;9.126;2023-07-24T07:45:23;20.90;97.90
21944;DHT22;11136;48.778;9.126;2023-07-24T07:47:49;21.00;98.00
21944;DHT22;11136;48.778;9.126;2023-07-24T07:50:15;21.00;97.90
21944;DHT22;11136;48.778;9.126;2023-07-24T07:52:40;21.00;97.80
21944;DHT22;11136;48.778;9.126;2023-07-24T07:55:06;21.20;97.70
21944;DHT22;11136;48.778;9.126;2023-07-24T07:57:35;21.10;97.60
21944;DHT22;11136;48.778;9.126;2023-07-24T08:00:02;21.10;97.50
21944;DHT22;11136;48.778;9.126;2023-07-24T08:02:28;21.10;97.70
21944;DHT22;11136;48.778;9.126;2023-07-24T08:04:53;21.20;97.70
21944;DHT22;11136;48.778;9.126;2023-07-24T08:07:19;21.20;97.90
21944;DHT22;11136;48.778;9.126;2023-07-24T08:09:46;21.20;98.00
21944;DHT22;11136;48.778;9.126;2023-07-24T08:12:11;21.20;98.00
21944;DHT22;11136;48.778;9.126;2023-07-24T08:14:37;21.20;98.10
21944;DHT22;11136;48.778;9.126;2023-07-24T08:17:03;21.20;98.60
21944;DHT22;11136;48.778;9.126;2023-07-24T08:19:28;21.20;98.30
21944;DHT22;11136;48.778;9.126;2023-07-24T08:21:55;21.20;98.50
21944;DHT22;11136;48.778;9.126;2023-07-24T08:24:21;21.20;98.60
21944;DHT22;11136;48.778;9.126;2023-07-24T08:26:46;21.10;99.00
21944;DHT22;11136;48.778;9.126;2023-07-24T08:29:12;21.10;99.40
21944;DHT22;11136;48.778;9.126;2023-07-24T08:31:38;21.10;99.70
21944;DHT22;11136;48.778;9.126;2023-07-24T08:34:04;21.20;99.90
21944;DHT22;11136;48.778;9.126;2023-07-24T08:36:29;21.00;99.90
21944;DHT22;11136;48.778;9.126;2023-07-24T08:38:55;21.00;99.90
21944;DHT22;11136;48.778;9.126;2023-07-24T08:41:20;21.00;99.90
21944;DHT22;11136;48.778;9.126;2023-07-24T08:43:46;21.10;99.90
21944;DHT22;11136;48.778;9.126;2023-07-24T08:46:12;20.90;99.90
21944;DHT22;11136;48.778;9.126;2023-07-24T08:48:42;20.90;99.90
21944;DHT22;11136;48.778;9.126;2023-07-24T08:51:12;21.00;99.90
21944;DHT22;11136;48.778;9.126;2023-07-24T08:53:42;21.00;99.90
21944;DHT22;11136;48.778;9.126;2023-07-24T08:56:10;20.90;99.90
21944;DHT22;11136;48.778;9.126;2023-07-24T08:58:37;20.90;99.90
21944;DHT22;11136;48.778;9.126;2023-07-24T09:01:05;20.90;99.90
21944;DHT22;11136;48.778;9.126;2023-07-24T09:03:34;20.90;99.90
21944;DHT22;11136;48.778;9.126;2023-07-24T09:06:00;20.90;99.90
21944;DHT22;11136;48.778;9.126;2023-07-24T09:08:42;20.90;99.90
21944;DHT22;11136;48.778;9.126;2023-07-24T09:11:10;20.90;99.90
21944;DHT22;11136;48.778;9.126;2023-07-24T09:13:37;20.90;99.90
21944;DHT22;11136;48.778;9.126;2023-07-24T09:16:03;21.00;99.90
21944;DHT22;11136;48.778;9.126;2023-07-24T09:18:42;21.00;99.90
21944;DHT22;11136;48.778;9.126;2023-07-24T09:21:09;21.00;99.90
21944;DHT22;11136;48.778;9.126;2023-07-24T09:23:37;21.00;99.90
21944;DHT22;11136;48.778;9.126;2023-07-24T09:26:06;21.00;99.90
21944;DHT22;11136;48.778;9.126;2023-07-24T09:28:33;21.00;99.90
21944;DHT22;11136;48.778;9.126;2023-07-24T09:30:59;21.00;99.90
21944;DHT22;11136;48.778;9.126;2023-07-24T09:33:41;21.10;99.90
21944;DHT22;11136;48.778;9.126;2023-07-24T09:36:08;21.10;99.90
21944;DHT22;11136;48.778;9.126;2023-07-24T09:38:38;21.10;99.90
21944;DHT22;11136;48.778;9.126;2023-07-24T09:41:04;21.20;99.90
21944;DHT22;11136;48.778;9.126;2023-07-24T09:43:31;21.30;99.90
21944;DHT22;11136;48.778;9.126;2023-07-24T09:45:57;21.30;99.90
21944;DHT22;11136;48.778;9.126;2023-07-24T09:48:26;21.30;99.90
21944;DHT22;11136;48.778;9.126;2023-07-24T09:50:56;21.30;99.90
21944;DHT22;11136;48.778;9.126;2023-07-24T09:53:33;21.40;99.90
21944;DHT22;11136;48.778;9.126;2023-07-24T09:56:03;21.40;99.90
21944;DHT22;11136;48.778;9.126;2023-07-24T09:58:38;21.40;99.90
21944;DHT22;11136;48.778;9.126;2023-07-24T10:01:05;21.40;99.90
21944;DHT22;11136;48.778;9.126;2023-07-24T10:03:40;21.40;99.90
21944;DHT22;11136;48.778;9.126;2023-07-24T10:06:08;21.40;99.90
21944;DHT22;11136;48.778;9.126;2023-07-24T10:08:36;21.40;99.90
21944;DHT22;11136;48.778;9.126;2023-07-24T10:11:05;21.40;99.90
21944;DHT22;11136;48.778;9.126;2023-07-24T10:13:31;21.40;99.90
21944;DHT22;11136;48.778;9.126;2023-07-24T10:16:02;21.30;99.90
21944;DHT22;11136;48.778;9.126;2023-07-24T10:18:30;21.30;99.90
21944;DHT22;11136;48.778;9.126;2023-07-24T10:21:04;21.30;99.90
21944;DHT22;11136;48.778;9.126;2023-07-24T10:23:30;21.30;99.90
21944;DHT22;11136;48.778;9.126;2023-07-24T10:26:02;21.30;99.90
21944;DHT22;11136;48.778;9.126;2023-07-24T10:28:38;21.30;99.90
21944;DHT22;11136;48.778;9.126;2023-07-24T10:31:06;21.30;99.90
21944;DHT22;11136;48.778;9.126;2023-07-24T10:33:36;21.40;99.90
21944;DHT22;11136;48.778;9.126;2023-07-24T10:36:08;21.30;99.90
21944;DHT22;11136;48.778;9.126;2023-07-24T10:38:40;21.40;99.90
21944;DHT22;11136;48.778;9.126;2023-07-24T10:41:08;21.20;99.90
21944;DHT22;11136;48.778;9.126;2023-07-24T10:43:48;21.20;99.90
21944;DHT22;11136;48.778;9.126;2023-07-24T10:46:16;21.20;99.90
21944;DHT22;11136;48.778;9.126;2023-07-24T10:48:48;21.20;99.90
21944;DHT22;11136;48.778;9.126;2023-07-24T10:51:14;21.20;99.90
21944;DHT22;11136;48.778;9.126;2023-07-24T10:53:50;21.10;99.90
21944;DHT22;11136;48.778;9.126;2023-07-24T10:56:16;21.20;99.90
21944;DHT22;11136;48.778;9.126;2023-07-24T10:58:42;21.00;99.90
21944;DHT22;11136;48.778;9.126;2023-07-24T11:01:08;20.90;99.90
21944;DHT22;11136;48.778;9.126;2023-07-24T11:03:40;20.90;99.90
21944;DHT22;11136;48.778;9.126;2023-07-24T11:06:16;20.80;99.90
21944;DHT22;11136;48.778;9.126;2023-07-24T11:08:41;20.80;99.90
21944;DHT22;11136;48.778;9.126;2023-07-24T11:11:08;20.60;99.90
21944;DHT22;11136;48.778;9.126;2023-07-24T11:13:33;20.50;99.90
21944;DHT22;11136;48.778;9.126;2023-07-24T11:16:05;20.40;99.90
21944;DHT22;11136;48.778;9.126;2023-07-24T11:18:31;20.30;99.90
21944;DHT22;11136;48.778;9.126;2023-07-24T11:20:57;20.30;99.90
21944;DHT22;11136;48.778;9.126;2023-07-24T11:23:23;20.50;99.90
21944;DHT22;11136;48.778;9.126;2023-07-24T11:25:53;20.10;99.90
21944;DHT22;11136;48.778;9.126;2023-07-24T11:28:19;20.10;99.90
21944;DHT22;11136;48.778;9.126;2023-07-24T11:30:45;20.00;99.90
21944;DHT22;11136;48.778;9.126;2023-07-24T11:33:14;20.00;99.90
21944;DHT22;11136;48.778;9.126;2023-07-24T11:35:40;20.00;99.90
21944;DHT22;11136;48.778;9.126;2023-07-24T11:38:08;20.00;99.90
21944;DHT22;11136;48.778;9.126;2023-07-24T11:40:42;20.20;99.90
21944;DHT22;11136;48.778;9.126;2023-07-24T11:43:21;20.10;99.90
21944;DHT22;11136;48.778;9.126;2023-07-24T11:45:48;20.20;99.90
21944;DHT22;11136;48.778;9.126;2023-07-24T11:48:17;20.30;99.90
21944;DHT22;11136;48.778;9.126;2023-07-24T11:50:48;20.40;99.90
21944;DHT22;11136;48.778;9.126;2023-07-24T11:53:31;20.50;99.90
21944;DHT22;11136;48.778;9.126;2023-07-24T11:55:59;20.60;99.90
21944;DHT22;11136;48.778;9.126;2023-07-24T11:58:27;20.60;99.90
21944;DHT22;11136;48.778;9.126;2023-07-24T12:00:53;20.60;99.90
21944;DHT22;11136;48.778;9.126;2023-07-24T12:03:26;20.60;99.90
21944;DHT22;11136;48.778;9.126;2023-07-24T12:05:52;20.60;99.90
21944;DHT22;11136;48.778;9.126;2023-07-24T12:08:20;20.60;99.90
21944;DHT22;11136;48.778;9.126;2023-07-24T12:10:49;20.60;99.90
21944;DHT22;11136;48.778;9.126;2023-07-24T12:13:14;20.80;99.90
21944;DHT22;11136;48.778;9.126;2023-07-24T12:15:40;20.50;99.90
21944;DHT22;11136;48.778;9.126;2023-07-24T12:18:06;20.70;99.90
21944;DHT22;11136;48.778;9.126;2023-07-24T12:20:34;20.50;99.90
21944;DHT22;11136;48.778;9.126;2023-07-24T12:23:00;20.60;99.90
21944;DHT22;11136;48.778;9.126;2023-07-24T12:25:25;20.60;99.90
21944;DHT22;11136;48.778;9.126;2023-07-24T12:27:51;20.60;99.90
21944;DHT22;11136;48.778;9.126;2023-07-24T12:30:17;20.60;99.90
21944;DHT22;11136;48.778;9.126;2023-07-24T12:32:44;20.60;99.90
21944;DHT22;11136;48.778;9.126;2023-07-24T12:35:10;20.70;99.90
21944;DHT22;11136;48.778;9.126;2023-07-24T12:37:36;20.70;99.90
21944;DHT22;11136;48.778;9.126;2023-07-24T12:40:02;20.70;99.90
21944;DHT22;11136;48.778;9.126;2023-07-24T12:42:27;20.70;99.90
21944;DHT22;11136;48.778;9.126;2023-07-24T12:44:53;20.80;99.90
21944;DHT22;11136;48.778;9.126;2023-07-24T12:47:19;20.80;99.90
21944;DHT22;11136;48.778;9.126;2023-07-24T12:49:44;20.90;99.90
21944;DHT22;11136;48.778;9.126;2023-07-24T12:52:11;20.90;99.90
21944;DHT22;11136;48.778;9.126;2023-07-24T12:54:36;21.00;99.90
21944;DHT22;11136;48.778;9.126;2023-07-24T12:57:02;21.00;99.90
21944;DHT22;11136;48.778;9.126;2023-07-24T12:59:28;21.10;99.90
21944;DHT22;11136;48.778;9.126;2023-07-24T13:01:54;21.20;99.90
21944;DHT22;11136;48.778;9.126;2023-07-24T13:04:20;21.40;99.90
21944;DHT22;11136;48.778;9.126;2023-07-24T13:06:46;21.30;99.90
21944;DHT22;11136;48.778;9.126;2023-07-24T13:09:11;21.50;99.90
21944;DHT22;11136;48.778;9.126;2023-07-24T13:11:37;21.60;99.90
21944;DHT22;11136;48.778;9.126;2023-07-24T13:14:02;21.70;99.90
21944;DHT22;11136;48.778;9.126;2023-07-24T13:16:28;21.80;99.90
21944;DHT22;11136;48.778;9.126;2023-07-24T13:18:53;22.00;99.90
21944;DHT22;11136;48.778;9.126;2023-07-24T13:21:19;22.10;99.90
21944;DHT22;11136;48.778;9.126;2023-07-24T13:23:45;22.60;99.90
21944;DHT22;11136;48.778;9.126;2023-07-24T13:26:11;22.70;99.90
21944;DHT22;11136;48.778;9.126;2023-07-24T13:28:38;22.70;99.90
21944;DHT22;11136;48.778;9.126;2023-07-24T13:31:18;22.60;99.90
21944;DHT22;11136;48.778;9.126;2023-07-24T13:33:44;22.70;99.90
21944;DHT22;11136;48.778;9.126;2023-07-24T13:36:09;22.80;99.90
21944;DHT22;11136;48.778;9.126;2023-07-24T13:38:35;22.90;99.90
21944;DHT22;11136;48.778;9.126;2023-07-24T13:41:01;23.00;99.90
21944;DHT22;11136;48.778;9.126;2023-07-24T13:43:28;23.00;99.90
21944;DHT22;11136;48.778;9.126;2023-07-24T13:45:53;23.00;99.90
21944;DHT22;11136;48.778;9.126;2023-07-24T13:48:19;23.00;99.90
21944;DHT22;11136;48.778;9.126;2023-07-24T13:50:45;23.00;99.90
21944;DHT22;11136;48.778;9.126;2023-07-24T13:53:10;23.00;99.90
21944;DHT22;11136;48.778;9.126;2023-07-24T13:55:37;23.00;99.90
21944;DHT22;11136;48.778;9.126;2023-07-24T13:58:04;23.20;99.90
21944;DHT22;11136;48.778;9.126;2023-07-24T14:00:29;23.20;99.90
21944;DHT22;11136;48.778;9.126;2023-07-24T14:02:55;23.50;99.90
21944;DHT22;11136;48.778;9.126;2023-07-24T14:05:21;23.60;99.90
21944;DHT22;11136;48.778;9.126;2023-07-24T14:07:46;23.70;99.90
21944;DHT22;11136;48.778;9.126;2023-07-24T14:10:12;23.80;99.90
21944;DHT22;11136;48.778;9.126;2023-07-24T14:12:37;23.90;99.90
21944;DHT22;11136;48.778;9.126;2023-07-24T14:15:03;23.90;99.90
21944;DHT22;11136;48.778;9.126;2023-07-24T14:17:29;24.00;99.90
21944;DHT22;11136;48.778;9.126;2023-07-24T14:19:55;24.30;99.90
21944;DHT22;11136;48.778;9.126;2023-07-24T14:22:20;24.30;99.90
21944;DHT22;11136;48.778;9.126;2023-07-24T14:24:46;24.20;99.00
21944;DHT22;11136;48.778;9.126;2023-07-24T14:27:13;24.10;98.60
21944;DHT22;11136;48.778;9.126;2023-07-24T14:29:39;24.00;98.80
21944;DHT22;11136;48.778;9.126;2023-07-24T14:32:05;24.00;98.20
21944;DHT22;11136;48.778;9.126;2023-07-24T14:34:31;23.90;97.90
21944;DHT22;11136;48.778;9.126;2023-07-24T14:36:57;23.80;97.90
21944;DHT22;11136;48.778;9.126;2023-07-24T14:39:22;23.80;97.70
21944;DHT22;11136;48.778;9.126;2023-07-24T14:41:48;23.90;97.80
21944;DHT22;11136;48.778;9.126;2023-07-24T14:44:13;23.70;97.80
21944;DHT22;11136;48.778;9.126;2023-07-24T14:46:39;23.70;97.80
21944;DHT22;11136;48.778;9.126;2023-07-24T14:49:05;23.80;97.90
21944;DHT22;11136;48.778;9.126;2023-07-24T14:51:30;23.80;97.60
21944;DHT22;11136;48.778;9.126;2023-07-24T14:53:56;23.80;97.60
21944;DHT22;11136;48.778;9.126;2023-07-24T14:56:21;23.80;97.50
21944;DHT22;11136;48.778;9.126;2023-07-24T14:58:47;23.70;97.50
21944;DHT22;11136;48.778;9.126;2023-07-24T15:01:13;23.70;97.30
21944;DHT22;11136;48.778;9.126;2023-07-24T15:03:38;23.60;97.30
21944;DHT22;11136;48.778;9.126;2023-07-24T15:06:04;23.60;97.40
21944;DHT22;11136;48.778;9.126;2023-07-24T15:08:33;23.70;97.30
21944;DHT22;11136;48.778;9.126;2023-07-24T15:10:58;23.80;97.50
21944;DHT22;11136;48.778;9.126;2023-07-24T15:13:24;23.80;97.60
21944;DHT22;11136;48.778;9.126;2023-07-24T15:15:50;23.90;97.50
21944;DHT22;11136;48.778;9.126;2023-07-24T15:18:17;23.90;97.30
21944;DHT22;11136;48.778;9.126;2023-07-24T15:20:43;23.90;97.10
21944;DHT22;11136;48.778;9.126;2023-07-24T15:23:09;24.00;96.80
21944;DHT22;11136;48.778;9.126;2023-07-24T15:25:35;24.20;96.90
21944;DHT22;11136;48.778;9.126;2023-07-24T15:28:01;23.80;96.80
21944;DHT22;11136;48.778;9.126;2023-07-24T15:30:27;23.80;97.10